Time;durP1;ratioP1;P1;durP2;ratioP2;P2;SDS_P1;SDS_P2;PMS_P1;PMS_P2;Temp;Humidity;BMP_temperature;BMP_pressure;BME280_temperature;BME280_humidity;BME280_pressure;Samples;Min_cycle;Max_cycle;Signal;HPM_P1;HPM_P2
2023/01/20 00:02:22;;;;;;;;;;;;;;;;;;4997442;28;19934;-58
2023/01/20 00:04:48;;;;;;;;;;;;;;;;;;4992684;28;19926;-59
2023/01/20 00:07:14;;;;;;;;;;;;;;;;;;4989471;28;19968;-59
2023/01/20 00:09:40;;;;;;;;;;;;;;;;;;4988816;28;19966;-59
2023/01/20 00:12:06;;;;;;;;;;;;;;;;;;4989459;28;20426;-60
2023/01/20 00:14:32;;;;;;;;;;;;;;;;;;4977570;28;19937;-59
2023/01/20 00:16:59;;;;;;;;;;;;;;;;;;4996835;28;19951;-59
2023/01/20 00:19:25;;;;;;;;;;;;;;;;;;4989139;28;20338;-57
2023/01/20 00:21:51;;;;;;;;;;;;;;;;;;4989248;28;20408;-58
2023/01/20 00:24:17;;;;;;;;;;;;;;;;;;4997210;28;19932;-58
2023/01/20 00:26:43;;;;;;;;;;;;;;;;;;4988791;28;19933;-56
2023/01/20 00:29:09;;;;;;;;;;;;;;;;;;5000076;28;19921;-59
2023/01/20 00:31:35;;;;;;;;;;;;;;;;;;4990756;28;19933;-59
2023/01/20 00:34:01;;;;;;;;;;;;;;;;;;4997889;28;19964;-59
2023/01/20 00:36:27;;;;;;;;;;;;;;;;;;4991165;28;19922;-59
2023/01/20 00:38:53;;;;;;;;;;;;;;;;;;4984117;28;19937;-59
2023/01/20 00:41:19;;;;;;;;;;;;;;;;;;4988519;28;19922;-59
2023/01/20 00:43:45;;;;;;;;;;;;;;;;;;4990342;28;19930;-59
2023/01/20 00:46:11;;;;;;;;;;;;;;;;;;4988152;28;20435;-53
2023/01/20 00:48:37;;;;;;;;;;;;;;;;;;4988461;28;19948;-59
2023/01/20 00:51:03;;;;;;;;;;;;;;;;;;4987680;28;19930;-58
2023/01/20 00:53:29;;;;;;;;;;;;;;;;;;4996390;28;19925;-60
2023/01/20 00:55:55;;;;;;;;;;;;;;;;;;4988609;28;20399;-58
2023/01/20 00:58:21;;;;;;;;;;;;;;;;;;4988127;28;20012;-60
2023/01/20 01:00:47;;;;;;;;;;;;;;;;;;4988544;28;19936;-59
2023/01/20 01:03:13;;;;;;;;;;;;;;;;;;4988263;28;20403;-60
2023/01/20 01:05:39;;;;;;;;;;;;;;;;;;4988339;28;19925;-59
2023/01/20 01:08:05;;;;;;;;;;;;;;;;;;4987871;28;19979;-60
2023/01/20 01:10:31;;;;;;;;;;;;;;;;;;4987837;28;20280;-60
2023/01/20 01:12:57;;;;;;;;;;;;;;;;;;4990635;28;19926;-59
2023/01/20 01:15:23;;;;;;;;;;;;;;;;;;4987781;28;19944;-60
2023/01/20 01:17:49;;;;;;;;;;;;;;;;;;4987652;28;19926;-57
2023/01/20 01:20:15;;;;;;;;;;;;;;;;;;4995927;28;19925;-59
2023/01/20 01:22:41;;;;;;;;;;;;;;;;;;4998732;28;20259;-56
2023/01/20 01:25:07;;;;;;;;;;;;;;;;;;4987153;28;19926;-60
2023/01/20 01:27:33;;;;;;;;;;;;;;;;;;4992027;28;19926;-58
2023/01/20 01:29:59;;;;;;;;;;;;;;;;;;4988482;28;19932;-60
2023/01/20 01:32:25;;;;;;;;;;;;;;;;;;4993575;28;20279;-60
2023/01/20 01:34:51;;;;;;;;;;;;;;;;;;4990633;28;19934;-59
2023/01/20 01:37:17;;;;;;;;;;;;;;;;;;4987766;28;19957;-60
2023/01/20 01:39:43;;;;;;;;;;;;;;;;;;4987081;28;20443;-60
2023/01/20 01:42:09;;;;;;;;;;;;;;;;;;4992889;28;19926;-60
2023/01/20 01:44:35;;;;;;;;;;;;;;;;;;4994411;28;19932;-54
2023/01/20 01:47:01;;;;;;;;;;;;;;;;;;4988642;28;20399;-53
2023/01/20 01:49:27;;;;;;;;;;;;;;;;;;4998037;28;20356;-60
2023/01/20 01:51:53;;;;;;;;;;;;;;;;;;4991744;28;20072;-59
2023/01/20 01:54:19;;;;;;;;;;;;;;;;;;4986787;28;19926;-60
2023/01/20 01:56:45;;;;;;;;;;;;;;;;;;4987291;28;19922;-59
2023/01/20 01:59:11;;;;;;;;;;;;;;;;;;4969626;28;19933;-60
2023/01/20 02:01:37;;;;;;;;;;;;;;;;;;4991669;28;19921;-59
2023/01/20 02:04:03;;;;;;;;;;;;;;;;;;5051315;23;19929;-58
2023/01/20 02:06:29;;;;;;;;;;;;;;;;;;5003689;28;19925;-55
2023/01/20 02:08:55;;;;;;;;;;;;;;;;;;5009202;28;19940;-60
2023/01/20 02:11:21;;;;;;;;;;;;;;;;;;5005169;28;19930;-54
2023/01/20 02:13:47;;;;;;;;;;;;;;;;;;5007143;28;19926;-60
2023/01/20 02:16:13;;;;;;;;;;;;;;;;;;5006531;28;19980;-55
2023/01/20 02:18:39;;;;;;;;;;;;;;;;;;5012689;28;20346;-58
2023/01/20 02:21:05;;;;;;;;;;;;;;;;;;5012430;28;19931;-57
2023/01/20 02:23:31;;;;;;;;;;;;;;;;;;5006400;28;19940;-58
2023/01/20 02:25:57;;;;;;;;;;;;;;;;;;5006872;28;20378;-60
2023/01/20 02:28:23;;;;;;;;;;;;;;;;;;5008923;28;19934;-60
2023/01/20 02:30:49;;;;;;;;;;;;;;;;;;5007002;28;19933;-59
2023/01/20 02:33:15;;;;;;;;;;;;;;;;;;5006693;28;19995;-60
2023/01/20 02:35:41;;;;;;;;;;;;;;;;;;5009200;28;19940;-58
2023/01/20 02:38:07;;;;;;;;;;;;;;;;;;5011007;28;19932;-59
2023/01/20 02:40:33;;;;;;;;;;;;;;;;;;5011900;28;19969;-56
2023/01/20 02:42:59;;;;;;;;;;;;;;;;;;5015723;28;19925;-60
2023/01/20 02:45:25;;;;;;;;;;;;;;;;;;5008572;28;19932;-59
2023/01/20 02:47:51;;;;;;;;;;;;;;;;;;5018199;28;19925;-53
2023/01/20 02:50:17;;;;;;;;;;;;;;;;;;5021489;28;19933;-59
2023/01/20 02:52:43;;;;;;;;;;;;;;;;;;5006714;28;19937;-59
2023/01/20 02:55:09;;;;;;;;;;;;;;;;;;5006105;28;20375;-60
2023/01/20 02:57:35;;;;;;;;;;;;;;;;;;5011111;28;19925;-56
2023/01/20 03:00:01;;;;;;;;;;;;;;;;;;5015262;28;19976;-60
2023/01/20 03:02:27;;;;;;;;;;;;;;;;;;5006044;28;19987;-59
2023/01/20 03:04:53;;;;;;;;;;;;;;;;;;5006185;28;19933;-60
2023/01/20 03:07:19;;;;;;;;;;;;;;;;;;5008761;28;19926;-59
2023/01/20 03:09:45;;;;;;;;;;;;;;;;;;5013173;28;19943;-60
2023/01/20 03:12:11;;;;;;;;;;;;;;;;;;5012331;28;19926;-60
2023/01/20 03:14:37;;;;;;;;;;;;;;;;;;5016336;28;19925;-53
2023/01/20 03:17:03;;;;;;;;;;;;;;;;;;5010186;28;20290;-57
2023/01/20 03:19:29;;;;;;;;;;;;;;;;;;5010270;28;19983;-55
2023/01/20 03:21:55;;;;;;;;;;;;;;;;;;5009411;28;19925;-60
2023/01/20 03:24:21;;;;;;;;;;;;;;;;;;5009696;28;19977;-58
2023/01/20 03:26:47;;;;;;;;;;;;;;;;;;5006234;28;20024;-59
2023/01/20 03:29:14;;;;;;;;;;;;;;;;;;5009450;28;19929;-59
2023/01/20 03:31:40;;;;;;;;;;;;;;;;;;5009036;28;19925;-53
2023/01/20 03:34:09;;;;;;;;;;;;;;;;;;5010081;28;19935;-59
2023/01/20 03:36:35;;;;;;;;;;;;;;;;;;5021652;28;19926;-58
2023/01/20 03:39:01;;;;;;;;;;;;;;;;;;5009738;28;20319;-60
2023/01/20 03:41:27;;;;;;;;;;;;;;;;;;5009075;28;19933;-59
2023/01/20 03:43:53;;;;;;;;;;;;;;;;;;5009572;28;19929;-60
2023/01/20 03:46:19;;;;;;;;;;;;;;;;;;5011757;28;20395;-59
2023/01/20 03:48:45;;;;;;;;;;;;;;;;;;5010302;28;20308;-60
2023/01/20 03:51:11;;;;;;;;;;;;;;;;;;5009169;28;20384;-60
2023/01/20 03:53:44;;;;;;;;;;;;;;;;;;5008547;28;19926;-58
2023/01/20 03:56:10;;;;;;;;;;;;;;;;;;5011776;28;19925;-58
2023/01/20 03:58:36;;;;;;;;;;;;;;;;;;5026333;28;20626;-54
2023/01/20 04:01:02;;;;;;;;;;;;;;;;;;5008849;28;19947;-59
2023/01/20 04:03:28;;;;;;;;;;;;;;;;;;5008919;28;19929;-56
2023/01/20 04:05:54;;;;;;;;;;;;;;;;;;5011171;28;20306;-60
2023/01/20 04:08:20;;;;;;;;;;;;;;;;;;5009357;28;19981;-59
2023/01/20 04:10:46;;;;;;;;;;;;;;;;;;5009042;28;20005;-60
2023/01/20 04:13:12;;;;;;;;;;;;;;;;;;5008647;28;20379;-59
2023/01/20 04:15:38;;;;;;;;;;;;;;;;;;5009622;28;19925;-60
2023/01/20 04:18:04;;;;;;;;;;;;;;;;;;5008587;28;19926;-57
2023/01/20 04:20:30;;;;;;;;;;;;;;;;;;5008921;28;20501;-59
2023/01/20 04:22:56;;;;;;;;;;;;;;;;;;5007904;28;19929;-60
2023/01/20 04:25:22;;;;;;;;;;;;;;;;;;5009353;28;19949;-59
2023/01/20 04:27:48;;;;;;;;;;;;;;;;;;5011536;28;19932;-59
2023/01/20 04:30:14;;;;;;;;;;;;;;;;;;5008009;28;19951;-56
2023/01/20 04:32:40;;;;;;;;;;;;;;;;;;5008035;28;19996;-60
2023/01/20 04:35:06;;;;;;;;;;;;;;;;;;5009229;28;20359;-57
2023/01/20 04:37:32;;;;;;;;;;;;;;;;;;5011495;28;20438;-60
2023/01/20 04:39:58;;;;;;;;;;;;;;;;;;5008589;28;19925;-58
2023/01/20 04:42:24;;;;;;;;;;;;;;;;;;5008147;28;19998;-60
2023/01/20 04:44:50;;;;;;;;;;;;;;;;;;5009302;28;19971;-60
2023/01/20 04:47:16;;;;;;;;;;;;;;;;;;5015209;28;19929;-59
2023/01/20 04:49:42;;;;;;;;;;;;;;;;;;5008330;28;19983;-60
2023/01/20 04:52:08;;;;;;;;;;;;;;;;;;5008039;28;19979;-58
2023/01/20 04:54:34;;;;;;;;;;;;;;;;;;5007596;28;19932;-60
2023/01/20 04:57:00;;;;;;;;;;;;;;;;;;5018241;28;19976;-54
2023/01/20 04:59:26;;;;;;;;;;;;;;;;;;5007478;28;20367;-58
2023/01/20 05:01:52;;;;;;;;;;;;;;;;;;5007835;28;20008;-54
2023/01/20 05:04:18;;;;;;;;;;;;;;;;;;5007641;28;19986;-59
2023/01/20 05:06:44;;;;;;;;;;;;;;;;;;5008896;28;19929;-57
2023/01/20 05:09:10;;;;;;;;;;;;;;;;;;5013660;28;19984;-59
2023/01/20 05:11:36;;;;;;;;;;;;;;;;;;5014029;28;20362;-58
2023/01/20 05:14:02;;;;;;;;;;;;;;;;;;5019167;28;19932;-60
2023/01/20 05:16:30;;;;;;;;;;;;;;;;;;5011580;28;20323;-60
2023/01/20 05:18:56;;;;;;;;;;;;;;;;;;5009786;28;19937;-58
2023/01/20 05:21:22;;;;;;;;;;;;;;;;;;5007613;28;20502;-59
2023/01/20 05:23:48;;;;;;;;;;;;;;;;;;5007020;28;19930;-59
2023/01/20 05:26:14;;;;;;;;;;;;;;;;;;5018814;28;19926;-58
2023/01/20 05:28:40;;;;;;;;;;;;;;;;;;5007166;28;19925;-56
2023/01/20 05:31:06;;;;;;;;;;;;;;;;;;5006815;28;19932;-60
2023/01/20 05:33:32;;;;;;;;;;;;;;;;;;5007747;28;19926;-60
2023/01/20 05:35:59;;;;;;;;;;;;;;;;;;5008817;28;19968;-56
2023/01/20 05:38:24;;;;;;;;;;;;;;;;;;5018962;28;19925;-57
2023/01/20 05:40:50;;;;;;;;;;;;;;;;;;5005854;28;19956;-60
2023/01/20 05:43:17;;;;;;;;;;;;;;;;;;5007570;28;19933;-59
2023/01/20 05:45:45;;;;;;;;;;;;;;;;;;5006546;28;19940;-59
2023/01/20 05:48:11;;;;;;;;;;;;;;;;;;5006676;28;20459;-60
2023/01/20 05:50:37;;;;;;;;;;;;;;;;;;5007197;28;20371;-60
2023/01/20 05:53:03;;;;;;;;;;;;;;;;;;5003988;28;20302;-55
2023/01/20 05:55:29;;;;;;;;;;;;;;;;;;5015772;28;20573;-60
2023/01/20 05:57:55;;;;;;;;;;;;;;;;;;5007325;28;20402;-59
2023/01/20 06:00:21;;;;;;;;;;;;;;;;;;5003205;28;19926;-60
2023/01/20 06:02:47;;;;;;;;;;;;;;;;;;5006228;28;19949;-57
2023/01/20 06:05:13;;;;;;;;;;;;;;;;;;4997513;28;19960;-60
2023/01/20 06:07:39;;;;;;;;;;;;;;;;;;5006541;28;19976;-55
2023/01/20 06:10:07;;;;;;;;;;;;;;;;;;5001588;28;19921;-60
2023/01/20 06:12:33;;;;;;;;;;;;;;;;;;5002274;28;20004;-54
2023/01/20 06:14:59;;;;;;;;;;;;;;;;;;4999402;28;19968;-60
2023/01/20 06:17:25;;;;;;;;;;;;;;;;;;5000815;28;19932;-57
2023/01/20 06:19:51;;;;;;;;;;;;;;;;;;5005726;28;20004;-60
2023/01/20 06:22:19;;;;;;;;;;;;;;;;;;5002054;28;19929;-59
2023/01/20 06:24:46;;;;;;;;;;;;;;;;;;5007151;28;20322;-60
2023/01/20 06:27:12;;;;;;;;;;;;;;;;;;5006791;28;20383;-58
2023/01/20 06:29:38;;;;;;;;;;;;;;;;;;5007447;28;19929;-59
2023/01/20 06:32:04;;;;;;;;;;;;;;;;;;5006942;28;19929;-56
2023/01/20 06:34:30;;;;;;;;;;;;;;;;;;5003360;28;19971;-60
2023/01/20 06:36:56;;;;;;;;;;;;;;;;;;5003576;28;19934;-56
2023/01/20 06:39:22;;;;;;;;;;;;;;;;;;5018460;28;20537;-60
2023/01/20 06:41:48;;;;;;;;;;;;;;;;;;5004645;28;19933;-60
2023/01/20 06:44:14;;;;;;;;;;;;;;;;;;5005386;28;19929;-61
2023/01/20 06:46:40;;;;;;;;;;;;;;;;;;5002377;28;19926;-59
2023/01/20 06:49:06;;;;;;;;;;;;;;;;;;5008809;28;19926;-56
2023/01/20 06:51:32;;;;;;;;;;;;;;;;;;5005600;28;19972;-60
2023/01/20 06:53:58;;;;;;;;;;;;;;;;;;5008315;28;20410;-57
2023/01/20 06:56:24;;;;;;;;;;;;;;;;;;5009798;28;19972;-60
2023/01/20 06:58:50;;;;;;;;;;;;;;;;;;5006604;28;19979;-59
2023/01/20 07:01:16;;;;;;;;;;;;;;;;;;5009864;28;20612;-60
2023/01/20 07:03:42;;;;;;;;;;;;;;;;;;5007193;28;19925;-60
2023/01/20 07:06:08;;;;;;;;;;;;;;;;;;5007739;28;20048;-60
2023/01/20 07:08:34;;;;;;;;;;;;;;;;;;5006475;28;20016;-59
2023/01/20 07:11:00;;;;;;;;;;;;;;;;;;5008456;28;19987;-58
2023/01/20 07:13:26;;;;;;;;;;;;;;;;;;5009588;28;19936;-60
2023/01/20 07:15:52;;;;;;;;;;;;;;;;;;5009841;28;19933;-54
2023/01/20 07:18:18;;;;;;;;;;;;;;;;;;5008848;28;20257;-60
2023/01/20 07:20:44;;;;;;;;;;;;;;;;;;5000024;28;19925;-58
2023/01/20 07:23:10;;;;;;;;;;;;;;;;;;5008565;28;19926;-59
2023/01/20 07:25:38;;;;;;;;;;;;;;;;;;5009768;28;19933;-57
2023/01/20 07:28:04;;;;;;;;;;;;;;;;;;5009126;28;19926;-60
2023/01/20 07:30:30;;;;;;;;;;;;;;;;;;5009644;28;20375;-60
2023/01/20 07:32:56;;;;;;;;;;;;;;;;;;5009793;28;19936;-60
2023/01/20 07:35:22;;;;;;;;;;;;;;;;;;5009517;28;19931;-60
2023/01/20 07:37:48;;;;;;;;;;;;;;;;;;5008591;28;19933;-58
2023/01/20 07:40:14;;;;;;;;;;;;;;;;;;5009094;28;20414;-55
2023/01/20 07:42:40;;;;;;;;;;;;;;;;;;5009508;28;19926;-59
2023/01/20 07:45:06;;;;;;;;;;;;;;;;;;5009085;28;19940;-58
2023/01/20 07:47:32;;;;;;;;;;;;;;;;;;5009787;28;19925;-59
2023/01/20 07:49:58;;;;;;;;;;;;;;;;;;5009141;28;19925;-55
2023/01/20 07:52:24;;;;;;;;;;;;;;;;;;5008186;28;19976;-60
2023/01/20 07:54:50;;;;;;;;;;;;;;;;;;5008806;28;20382;-58
2023/01/20 07:57:16;;;;;;;;;;;;;;;;;;5009382;28;19926;-60
2023/01/20 07:59:42;;;;;;;;;;;;;;;;;;5008484;28;19930;-58
2023/01/20 08:02:08;;;;;;;;;;;;;;;;;;5008794;28;20584;-60
2023/01/20 08:04:34;;;;;;;;;;;;;;;;;;5008926;28;19925;-58
2023/01/20 08:07:00;;;;;;;;;;;;;;;;;;5008777;28;19925;-53
2023/01/20 08:09:26;;;;;;;;;;;;;;;;;;5008166;28;19948;-59
2023/01/20 08:11:52;;;;;;;;;;;;;;;;;;5008795;28;20468;-55
2023/01/20 08:14:18;;;;;;;;;;;;;;;;;;5024270;28;19933;-59
2023/01/20 08:16:44;;;;;;;;;;;;;;;;;;5008620;28;19929;-56
2023/01/20 08:19:10;;;;;;;;;;;;;;;;;;5008401;28;20543;-60
2023/01/20 08:21:36;;;;;;;;;;;;;;;;;;5008794;28;19925;-57
2023/01/20 08:24:04;;;;;;;;;;;;;;;;;;5008150;28;19925;-55
2023/01/20 08:26:30;;;;;;;;;;;;;;;;;;5008894;28;19925;-56
2023/01/20 08:28:56;;;;;;;;;;;;;;;;;;5008436;28;20018;-60
2023/01/20 08:31:22;;;;;;;;;;;;;;;;;;5008069;28;20367;-59
2023/01/20 08:33:48;;;;;;;;;;;;;;;;;;5008588;28;20009;-60
2023/01/20 08:36:14;;;;;;;;;;;;;;;;;;5007998;28;19928;-60
2023/01/20 08:38:40;;;;;;;;;;;;;;;;;;5007197;28;19926;-59
2023/01/20 08:41:06;;;;;;;;;;;;;;;;;;5008435;28;19928;-53
2023/01/20 08:43:32;;;;;;;;;;;;;;;;;;5008632;28;19926;-59
2023/01/20 08:45:58;;;;;;;;;;;;;;;;;;5008687;28;19929;-57
2023/01/20 08:48:24;;;;;;;;;;;;;;;;;;5007560;28;19934;-58
2023/01/20 08:50:50;;;;;;;;;;;;;;;;;;5007910;28;20020;-60
2023/01/20 08:53:16;;;;;;;;;;;;;;;;;;5006543;28;20367;-60
2023/01/20 08:55:42;;;;;;;;;;;;;;;;;;5008056;28;19925;-60
2023/01/20 08:58:08;;;;;;;;;;;;;;;;;;5007749;28;19926;-60
2023/01/20 09:00:34;;;;;;;;;;;;;;;;;;5008027;28;19951;-60
2023/01/20 09:03:00;;;;;;;;;;;;;;;;;;5008388;28;20407;-60
2023/01/20 09:05:26;;;;;;;;;;;;;;;;;;5007097;28;19971;-57
2023/01/20 09:07:54;;;;;;;;;;;;;;;;;;5021494;28;21359;-60
2023/01/20 09:10:20;;;;;;;;;;;;;;;;;;5006749;28;20397;-58
2023/01/20 09:12:47;;;;;;;;;;;;;;;;;;5007589;28;19926;-60
2023/01/20 09:15:13;;;;;;;;;;;;;;;;;;5007523;28;19926;-59
2023/01/20 09:17:39;;;;;;;;;;;;;;;;;;5007786;28;19952;-56
2023/01/20 09:20:05;;;;;;;;;;;;;;;;;;5007535;28;19952;-59
2023/01/20 09:22:32;;;;;;;;;;;;;;;;;;5007171;28;20371;-58
2023/01/20 09:24:59;;;;;;;;;;;;;;;;;;5007780;28;19932;-57
2023/01/20 09:27:25;;;;;;;;;;;;;;;;;;5006825;28;19925;-60
2023/01/20 09:29:51;;;;;;;;;;;;;;;;;;5007629;28;19925;-59
2023/01/20 09:32:17;;;;;;;;;;;;;;;;;;5007090;28;19972;-56
2023/01/20 09:34:43;;;;;;;;;;;;;;;;;;5007463;28;19984;-60
2023/01/20 09:45:24;;;;;;;;;;;;;;;;;;4994332;28;19955;-60
2023/01/20 09:47:51;;;;;;;;;;;;;;;;;;5022678;28;20072;-58
2023/01/20 09:53:02;;;;;;;;;;;;;;;;;;5021885;28;19980;-57
2023/01/20 09:55:28;;;;;;;;;;;;;;;;;;5007437;28;19925;-61
2023/01/20 09:57:58;;;;;;;;;;;;;;;;;;5006872;28;19930;-53
2023/01/20 10:00:24;;;;;;;;;;;;;;;;;;5006805;28;19929;-59
2023/01/20 10:02:50;;;;;;;;;;;;;;;;;;5007337;28;19925;-59
2023/01/20 10:05:16;;;;;;;;;;;;;;;;;;5006123;28;20383;-60
2023/01/20 10:07:42;;;;;;;;;;;;;;;;;;5006398;28;19979;-60
2023/01/20 10:10:08;;;;;;;;;;;;;;;;;;5006622;28;19960;-60
2023/01/20 10:12:34;;;;;;;;;;;;;;;;;;5006867;28;19925;-58
2023/01/20 10:15:01;;;;;;;;;;;;;;;;;;5007213;28;20021;-51
2023/01/20 10:17:27;;;;;;;;;;;;;;;;;;5006666;28;19925;-59
2023/01/20 10:19:55;;;;;;;;;;;;;;;;;;5006709;28;20743;-59
2023/01/20 10:22:21;;;;;;;;;;;;;;;;;;5007136;28;20290;-58
2023/01/20 10:24:47;;;;;;;;;;;;;;;;;;5010129;28;19936;-58
2023/01/20 10:27:13;;;;;;;;;;;;;;;;;;5010571;28;20024;-59
2023/01/20 10:29:39;;;;;;;;;;;;;;;;;;5010822;28;20016;-59
2023/01/20 10:32:05;;;;;;;;;;;;;;;;;;5010937;28;19925;-60
2023/01/20 10:34:31;;;;;;;;;;;;;;;;;;5010718;28;20413;-57
2023/01/20 10:36:57;;;;;;;;;;;;;;;;;;5010139;28;19929;-61
2023/01/20 10:39:23;;;;;;;;;;;;;;;;;;5010247;28;20338;-57
2023/01/20 10:41:49;;;;;;;;;;;;;;;;;;5010917;28;19925;-60
2023/01/20 10:44:15;;;;;;;;;;;;;;;;;;5010133;28;19926;-60
2023/01/20 10:46:41;;;;;;;;;;;;;;;;;;5010792;28;19929;-54
2023/01/20 10:49:07;;;;;;;;;;;;;;;;;;5010585;28;19975;-59
2023/01/20 10:51:33;;;;;;;;;;;;;;;;;;5009758;28;19984;-58
2023/01/20 10:53:59;;;;;;;;;;;;;;;;;;5011128;28;20395;-60
2023/01/20 10:56:25;;;;;;;;;;;;;;;;;;5010282;28;19921;-57
2023/01/20 10:58:51;;;;;;;;;;;;;;;;;;5010514;28;19949;-60
2023/01/20 11:01:17;;;;;;;;;;;;;;;;;;5010285;28;20351;-59
2023/01/20 11:03:44;;;;;;;;;;;;;;;;;;5009811;28;19937;-59
2023/01/20 11:06:10;;;;;;;;;;;;;;;;;;5009760;28;19933;-59
2023/01/20 11:08:36;;;;;;;;;;;;;;;;;;5009379;28;20095;-58
2023/01/20 11:11:02;;;;;;;;;;;;;;;;;;5010584;28;19926;-59
2023/01/20 11:13:28;;;;;;;;;;;;;;;;;;5010522;28;20059;-59
2023/01/20 11:15:54;;;;;;;;;;;;;;;;;;5010268;28;20362;-60
2023/01/20 11:18:20;;;;;;;;;;;;;;;;;;5009875;28;19936;-57
2023/01/20 11:20:46;;;;;;;;;;;;;;;;;;5010212;28;19932;-60
2023/01/20 11:23:12;;;;;;;;;;;;;;;;;;5008855;28;20000;-59
2023/01/20 11:25:38;;;;;;;;;;;;;;;;;;5009913;28;20026;-61
2023/01/20 11:28:05;;;;;;;;;;;;;;;;;;5009587;28;20438;-60
2023/01/20 11:30:31;;;;;;;;;;;;;;;;;;5010498;28;19925;-60
2023/01/20 11:32:57;;;;;;;;;;;;;;;;;;5009779;28;20283;-59
2023/01/20 11:35:23;;;;;;;;;;;;;;;;;;5008458;28;19936;-60
2023/01/20 11:37:49;;;;;;;;;;;;;;;;;;5008975;28;20453;-55
2023/01/20 11:40:15;;;;;;;;;;;;;;;;;;5009577;28;19926;-60
2023/01/20 11:42:42;;;;;;;;;;;;;;;;;;5009343;28;20307;-55
2023/01/20 11:45:08;;;;;;;;;;;;;;;;;;5009024;28;19948;-59
2023/01/20 11:47:34;;;;;;;;;;;;;;;;;;5009647;28;20334;-61
2023/01/20 11:50:00;;;;;;;;;;;;;;;;;;5009902;28;19929;-58
2023/01/20 11:52:26;;;;;;;;;;;;;;;;;;5008481;28;19925;-61
2023/01/20 11:54:51;;;;;;;;;;;;;;;;;;5009376;28;19926;-60
2023/01/20 11:57:17;;;;;;;;;;;;;;;;;;5009300;28;20306;-60
2023/01/20 11:59:43;;;;;;;;;;;;;;;;;;5009475;28;19932;-61
2023/01/20 12:02:09;;;;;;;;;;;;;;;;;;5009040;28;19921;-60
2023/01/20 12:04:35;;;;;;;;;;;;;;;;;;5008825;28;19932;-61
2023/01/20 12:07:01;;;;;;;;;;;;;;;;;;5008399;28;19929;-56
2023/01/20 12:09:28;;;;;;;;;;;;;;;;;;5009565;28;20364;-57
2023/01/20 12:11:54;;;;;;;;;;;;;;;;;;5009103;28;19971;-60
2023/01/20 12:14:22;;;;;;;;;;;;;;;;;;5008750;28;19981;-60
2023/01/20 12:16:48;;;;;;;;;;;;;;;;;;5008815;28;19921;-57
2023/01/20 12:19:14;;;;;;;;;;;;;;;;;;5008504;28;20206;-61
2023/01/20 12:21:40;;;;;;;;;;;;;;;;;;5007689;28;19957;-60
2023/01/20 12:24:06;;;;;;;;;;;;;;;;;;5007962;28;20566;-61
2023/01/20 12:26:32;;;;;;;;;;;;;;;;;;5009015;28;20012;-62
2023/01/20 12:28:58;;;;;;;;;;;;;;;;;;5008597;28;19943;-53
2023/01/20 12:31:24;;;;;;;;;;;;;;;;;;5003195;28;19934;-59
2023/01/20 12:33:50;;;;;;;;;;;;;;;;;;5003595;28;20282;-59
2023/01/20 12:36:16;;;;;;;;;;;;;;;;;;5003495;28;19930;-58
2023/01/20 12:38:42;;;;;;;;;;;;;;;;;;5004479;28;19930;-59
2023/01/20 12:41:08;;;;;;;;;;;;;;;;;;5003205;28;20296;-62
2023/01/20 12:43:34;;;;;;;;;;;;;;;;;;5002695;28;20406;-62
2023/01/20 12:46:00;;;;;;;;;;;;;;;;;;5003199;28;19936;-61
2023/01/20 12:48:26;;;;;;;;;;;;;;;;;;5002806;28;19926;-62
2023/01/20 12:50:52;;;;;;;;;;;;;;;;;;5001380;28;20447;-59
2023/01/20 12:53:18;;;;;;;;;;;;;;;;;;5005086;28;19932;-62
2023/01/20 12:55:44;;;;;;;;;;;;;;;;;;5006040;28;19929;-58
2023/01/20 12:58:10;;;;;;;;;;;;;;;;;;5005422;28;19925;-62
2023/01/20 13:00:36;;;;;;;;;;;;;;;;;;5005436;28;19932;-58
2023/01/20 13:03:02;;;;;;;;;;;;;;;;;;5005691;28;19933;-62
2023/01/20 13:05:28;;;;;;;;;;;;;;;;;;5009648;28;20370;-61
2023/01/20 13:07:55;;;;;;;;;;;;;;;;;;5007243;28;19930;-62
2023/01/20 13:10:21;;;;;;;;;;;;;;;;;;5007927;28;20264;-62
2023/01/20 13:12:47;;;;;;;;;;;;;;;;;;5006326;28;20314;-62
2023/01/20 13:15:13;;;;;;;;;;;;;;;;;;5008019;28;19926;-63
2023/01/20 13:17:39;;;;;;;;;;;;;;;;;;5007798;28;20071;-58
2023/01/20 13:20:05;;;;;;;;;;;;;;;;;;5007375;28;19931;-61
2023/01/20 13:25:34;;;;;;;;;;;;;;;;;;5000761;28;20019;-58
2023/01/20 13:28:00;;;;;;;;;;;;;;;;;;5000964;28;19933;-59
2023/01/20 13:30:26;;;;;;;;;;;;;;;;;;5002273;28;19929;-60
2023/01/20 13:32:52;;;;;;;;;;;;;;;;;;5002305;28;19976;-61
2023/01/20 13:35:19;;;;;;;;;;;;;;;;;;4999996;28;19929;-57
2023/01/20 13:43:35;;;;;;;;;;;;;;;;;;4997360;28;19937;-59
2023/01/20 13:46:01;;;;;;;;;;;;;;;;;;5004591;28;19934;-61
2023/01/20 13:48:27;;;;;;;;;;;;;;;;;;5001749;28;19940;-58
2023/01/20 13:50:53;;;;;;;;;;;;;;;;;;4997156;28;19930;-57
2023/01/20 13:53:19;;;;;;;;;;;;;;;;;;4998230;28;19988;-59
2023/01/20 13:55:47;;;;;;;;;;;;;;;;;;4999887;28;19929;-57
2023/01/20 13:58:13;;;;;;;;;;;;;;;;;;5000693;28;19960;-59
2023/01/20 14:00:39;;;;;;;;;;;;;;;;;;5000142;28;19976;-59
2023/01/20 14:03:05;;;;;;;;;;;;;;;;;;5004913;28;20363;-57
2023/01/20 14:05:31;;;;;;;;;;;;;;;;;;4998459;28;19926;-58
2023/01/20 14:07:57;;;;;;;;;;;;;;;;;;5004827;28;19937;-59
2023/01/20 14:10:23;;;;;;;;;;;;;;;;;;5002666;28;19935;-57
2023/01/20 14:12:49;;;;;;;;;;;;;;;;;;5002927;28;20016;-59
2023/01/20 14:15:15;;;;;;;;;;;;;;;;;;4999966;28;20438;-57
2023/01/20 14:17:41;;;;;;;;;;;;;;;;;;5007386;28;20649;-60
2023/01/20 14:20:07;;;;;;;;;;;;;;;;;;5000223;28;19929;-59
2023/01/20 14:22:34;;;;;;;;;;;;;;;;;;4998058;28;19929;-54
2023/01/20 14:25:00;;;;;;;;;;;;;;;;;;4999204;28;19932;-59
2023/01/20 14:27:27;;;;;;;;;;;;;;;;;;5000405;28;19933;-58
2023/01/20 14:29:53;;;;;;;;;;;;;;;;;;5001639;28;19973;-59
2023/01/20 14:32:19;;;;;;;;;;;;;;;;;;5001675;28;19957;-56
2023/01/20 14:34:45;;;;;;;;;;;;;;;;;;5001806;28;19996;-56
2023/01/20 14:37:11;;;;;;;;;;;;;;;;;;4998482;28;19929;-59
2023/01/20 14:39:38;;;;;;;;;;;;;;;;;;5002515;28;20497;-58
2023/01/20 14:42:04;;;;;;;;;;;;;;;;;;5002621;28;19961;-58
2023/01/20 14:44:32;;;;;;;;;;;;;;;;;;5003243;28;19987;-59
2023/01/20 14:46:58;;;;;;;;;;;;;;;;;;5003137;28;19940;-60
2023/01/20 14:49:24;;;;;;;;;;;;;;;;;;5001433;28;19940;-59
2023/01/20 14:51:50;;;;;;;;;;;;;;;;;;4997652;28;19929;-60
2023/01/20 14:54:16;;;;;;;;;;;;;;;;;;4999188;28;20012;-59
2023/01/20 14:56:42;;;;;;;;;;;;;;;;;;4998916;28;20051;-60
2023/01/20 14:59:08;;;;;;;;;;;;;;;;;;5001545;28;19926;-59
2023/01/20 15:01:34;;;;;;;;;;;;;;;;;;5002580;28;20298;-57
2023/01/20 15:04:00;;;;;;;;;;;;;;;;;;5000504;28;19932;-59
2023/01/20 15:06:26;;;;;;;;;;;;;;;;;;5000176;28;19926;-58
2023/01/20 15:08:52;;;;;;;;;;;;;;;;;;4999512;28;19940;-55
2023/01/20 15:11:20;;;;;;;;;;;;;;;;;;5005301;28;20382;-58
2023/01/20 15:13:46;;;;;;;;;;;;;;;;;;5003978;28;19926;-59
2023/01/20 15:16:12;;;;;;;;;;;;;;;;;;5005183;28;19988;-61
2023/01/20 15:18:38;;;;;;;;;;;;;;;;;;5003526;28;20105;-57
2023/01/20 15:21:04;;;;;;;;;;;;;;;;;;5002375;28;20050;-55
2023/01/20 15:23:30;;;;;;;;;;;;;;;;;;5005009;28;20136;-60
2023/01/20 15:25:56;;;;;;;;;;;;;;;;;;5003986;28;19933;-58
2023/01/20 15:28:23;;;;;;;;;;;;;;;;;;4997266;28;20899;-61
2023/01/20 15:30:49;;;;;;;;;;;;;;;;;;5002790;28;19968;-58
2023/01/20 15:33:16;;;;;;;;;;;;;;;;;;5001321;28;19926;-60
2023/01/20 15:35:42;;;;;;;;;;;;;;;;;;5002333;28;19921;-61
2023/01/20 15:38:08;;;;;;;;;;;;;;;;;;5001980;28;20020;-60
2023/01/20 15:40:34;;;;;;;;;;;;;;;;;;5002243;28;20012;-60
2023/01/20 15:43:00;;;;;;;;;;;;;;;;;;4999618;28;19921;-60
2023/01/20 15:45:26;;;;;;;;;;;;;;;;;;5001163;28;19925;-57
2023/01/20 15:47:52;;;;;;;;;;;;;;;;;;5002251;28;20568;-59
2023/01/20 15:50:19;;;;;;;;;;;;;;;;;;5001345;28;20016;-60
2023/01/20 15:52:45;;;;;;;;;;;;;;;;;;5001162;28;20038;-60
2023/01/20 15:55:12;;;;;;;;;;;;;;;;;;5008705;28;20364;-60
2023/01/20 15:57:38;;;;;;;;;;;;;;;;;;5003416;28;19961;-59
2023/01/20 16:00:05;;;;;;;;;;;;;;;;;;5009362;28;19980;-59
2023/01/20 16:02:31;;;;;;;;;;;;;;;;;;5009702;28;19932;-60
2023/01/20 16:04:57;;;;;;;;;;;;;;;;;;5009176;28;19969;-58
2023/01/20 16:07:23;;;;;;;;;;;;;;;;;;5008903;28;19929;-60
2023/01/20 16:09:49;;;;;;;;;;;;;;;;;;5009414;28;20386;-59
2023/01/20 16:12:15;;;;;;;;;;;;;;;;;;5009013;28;19957;-59
2023/01/20 16:14:41;;;;;;;;;;;;;;;;;;5002029;28;19925;-60
2023/01/20 16:17:07;;;;;;;;;;;;;;;;;;5008754;28;19926;-56
2023/01/20 16:19:35;;;;;;;;;;;;;;;;;;5009053;28;19979;-59
2023/01/20 16:22:01;;;;;;;;;;;;;;;;;;5008847;28;19929;-59
2023/01/20 16:24:28;;;;;;;;;;;;;;;;;;5009284;28;19933;-60
2023/01/20 16:26:54;;;;;;;;;;;;;;;;;;5005764;28;19925;-58
2023/01/20 16:29:20;;;;;;;;;;;;;;;;;;5008637;28;19952;-61
2023/01/20 16:31:46;;;;;;;;;;;;;;;;;;4997940;28;19926;-57
2023/01/20 16:34:12;;;;;;;;;;;;;;;;;;5007389;28;19952;-60
2023/01/20 16:36:38;;;;;;;;;;;;;;;;;;5006903;28;19929;-59
2023/01/20 16:39:04;;;;;;;;;;;;;;;;;;5000754;28;20650;-59
2023/01/20 16:41:30;;;;;;;;;;;;;;;;;;5009414;28;19926;-58
2023/01/20 16:43:57;;;;;;;;;;;;;;;;;;5006197;28;19926;-58
2023/01/20 16:46:23;;;;;;;;;;;;;;;;;;5008294;28;19930;-60
2023/01/20 16:48:49;;;;;;;;;;;;;;;;;;5005543;28;20001;-60
2023/01/20 16:51:15;;;;;;;;;;;;;;;;;;5007498;28;20310;-61
2023/01/20 16:53:41;;;;;;;;;;;;;;;;;;5008072;28;19925;-60
2023/01/20 16:56:07;;;;;;;;;;;;;;;;;;5007619;28;20351;-60
2023/01/20 16:58:33;;;;;;;;;;;;;;;;;;5001505;28;19925;-59